createdAt,value
2018-09-05T00:01:46.681Z,76.68
2018-09-05T00:04:15.084Z,77.91
2018-09-05T00:06:43.446Z,78.80
2018-09-05T00:09:11.824Z,79.75
2018-09-05T00:11:40.612Z,78.77
2018-09-05T00:14:09.508Z,78.72
2018-09-05T00:16:37.913Z,79.35
2018-09-05T00:19:06.465Z,80.14
2018-09-05T00:21:34.924Z,80.31
2018-09-05T00:24:03.286Z,80.48
2018-09-05T00:26:31.628Z,79.29
2018-09-05T00:28:59.988Z,80.07
2018-09-05T00:31:28.361Z,80.41
2018-09-05T00:33:56.736Z,80.93
2018-09-05T00:36:25.126Z,80.01
2018-09-05T00:38:53.495Z,79.75
2018-09-05T00:41:21.880Z,81.14
2018-09-05T00:43:50.268Z,79.92
2018-09-05T00:46:18.630Z,80.23
2018-09-05T00:48:47.044Z,80.51
2018-09-05T00:51:15.449Z,80.76
2018-09-05T00:53:43.805Z,81.56
2018-09-05T00:56:12.167Z,81.90
2018-09-05T00:58:40.540Z,80.47
2018-09-05T01:01:08.911Z,81.46
2018-09-05T01:03:37.300Z,81.68
2018-09-05T01:06:05.659Z,82.28
2018-09-05T01:09:58.442Z,82.22
2018-09-05T01:12:26.815Z,81.30
2018-09-05T01:14:55.812Z,82.73
2018-09-05T01:17:24.176Z,82.32
2018-09-05T01:19:52.535Z,82.22
2018-09-05T01:22:20.890Z,81.88
2018-09-05T01:24:49.284Z,82.67
2018-09-05T01:27:17.639Z,83.04
2018-09-05T01:29:45.988Z,83.27
2018-09-05T01:32:14.329Z,83.12
2018-09-05T01:34:42.941Z,83.64
2018-09-05T01:37:11.738Z,82.96
2018-09-05T01:39:40.109Z,83.26
2018-09-05T01:42:09.521Z,84.50
2018-09-05T01:44:37.888Z,84.68
2018-09-05T01:47:06.296Z,84.71
2018-09-05T01:49:34.712Z,84.15
2018-09-05T01:52:03.092Z,84.30
2018-09-05T01:54:31.435Z,84.73
2018-09-05T01:56:59.811Z,83.57
2018-09-05T01:59:28.195Z,84.29
2018-09-05T02:01:56.570Z,84.04
2018-09-05T02:04:24.937Z,84.24
2018-09-05T02:06:53.286Z,84.04
2018-09-05T02:09:21.652Z,83.23
2018-09-05T02:11:49.977Z,83.99
2018-09-05T02:14:18.317Z,82.99
2018-09-05T02:16:46.692Z,83.49
2018-09-05T02:19:15.051Z,83.75
2018-09-05T02:21:43.377Z,85.37
2018-09-05T02:24:11.706Z,83.90
2018-09-05T02:26:40.054Z,84.82
2018-09-05T02:29:08.430Z,85.05
2018-09-05T02:31:36.784Z,84.49
2018-09-05T02:34:05.134Z,85.76
2018-09-05T02:36:33.474Z,84.72
2018-09-05T02:39:01.849Z,86.64
2018-09-05T02:41:30.184Z,85.56
2018-09-05T02:44:03.816Z,85.24
2018-09-05T02:46:32.164Z,85.06
2018-09-05T02:49:00.516Z,86.09
2018-09-05T02:51:28.866Z,86.25
2018-09-05T02:53:57.210Z,85.79
2018-09-05T02:56:25.621Z,86.85
2018-09-05T02:58:53.999Z,85.45
2018-09-05T03:01:22.444Z,85.63
2018-09-05T03:03:50.864Z,85.58
2018-09-05T03:06:19.200Z,85.75
2018-09-05T03:08:47.576Z,86.71
2018-09-05T03:11:15.929Z,86.76
2018-09-05T03:13:44.271Z,86.72
2018-09-05T03:16:12.617Z,87.94
2018-09-05T03:18:40.961Z,87.74
2018-09-05T03:21:09.312Z,87.28
2018-09-05T03:23:37.706Z,86.29
2018-09-05T03:26:06.070Z,86.56
2018-09-05T03:28:34.418Z,86.90
2018-09-05T03:31:02.772Z,87.14
2018-09-05T03:33:31.136Z,87.70
2018-09-05T03:35:59.536Z,87.00
2018-09-05T03:38:27.868Z,87.09
2018-09-05T03:40:56.604Z,86.37
2018-09-05T03:43:24.923Z,87.15
2018-09-05T03:45:53.263Z,86.79
2018-09-05T03:48:21.614Z,87.58
2018-09-05T03:50:54.088Z,87.85
2018-09-05T03:53:22.539Z,87.87
2018-09-05T03:55:50.870Z,87.46
2018-09-05T03:58:19.191Z,87.19
2018-09-05T04:00:47.572Z,86.28
2018-09-05T04:03:15.917Z,86.15
2018-09-05T04:05:44.261Z,87.44
2018-09-05T04:08:12.574Z,87.12
2018-09-05T04:10:40.973Z,86.58
2018-09-05T04:13:09.338Z,87.23
2018-09-05T04:15:37.697Z,85.85
2018-09-05T04:18:06.053Z,85.98
2018-09-05T04:20:34.398Z,85.80
2018-09-05T04:23:02.711Z,86.02
2018-09-05T04:25:31.027Z,86.55
2018-09-05T04:27:59.351Z,86.79
2018-09-05T04:30:27.670Z,86.66
2018-09-05T04:32:55.988Z,87.05
2018-09-05T04:35:24.343Z,86.88
2018-09-05T04:37:52.662Z,87.38
2018-09-05T04:40:20.992Z,86.33
2018-09-05T04:42:49.307Z,87.38
2018-09-05T04:45:17.700Z,86.48
2018-09-05T04:47:45.992Z,87.27
2018-09-05T04:50:14.319Z,86.36
2018-09-05T04:52:42.750Z,87.74
2018-09-05T04:55:11.061Z,86.19
2018-09-05T04:57:39.427Z,86.61
2018-09-05T05:00:07.758Z,86.92
2018-09-05T05:02:36.131Z,85.95
2018-09-05T05:05:04.482Z,86.72
2018-09-05T05:07:32.840Z,85.75
2018-09-05T05:10:01.172Z,85.37
2018-09-05T05:12:29.544Z,85.92
2018-09-05T05:14:57.878Z,85.56
2018-09-05T05:17:26.227Z,85.46
2018-09-05T05:19:54.579Z,85.90
2018-09-05T05:22:22.911Z,85.48
2018-09-05T05:24:51.264Z,84.53
2018-09-05T05:27:19.608Z,84.97
2018-09-05T05:29:47.957Z,85.18
2018-09-05T05:32:16.297Z,85.28
2018-09-05T05:34:44.650Z,85.29
2018-09-05T05:37:12.996Z,84.34
2018-09-05T05:39:41.333Z,84.77
2018-09-05T05:42:09.731Z,83.98
2018-09-05T05:44:38.060Z,84.90
2018-09-05T05:47:06.470Z,84.47
2018-09-05T05:49:34.828Z,84.51
2018-09-05T05:52:03.162Z,83.85
2018-09-05T05:54:31.528Z,84.35
2018-09-05T05:56:59.853Z,83.58
2018-09-05T05:59:28.209Z,84.25
2018-09-05T06:01:56.591Z,83.52
2018-09-05T06:04:24.943Z,83.81
2018-09-05T06:06:53.276Z,83.67
2018-09-05T06:09:21.611Z,83.45
2018-09-05T06:11:49.961Z,83.30
2018-09-05T06:14:18.309Z,82.89
2018-09-05T06:16:46.645Z,83.32
2018-09-05T06:19:14.967Z,82.90
2018-09-05T06:21:43.304Z,82.44
2018-09-05T06:24:11.651Z,82.49
2018-09-05T06:26:40.025Z,81.97
2018-09-05T06:29:08.363Z,81.99
2018-09-05T06:31:36.716Z,81.95
2018-09-05T06:34:05.289Z,81.16
2018-09-05T06:36:33.576Z,81.42
2018-09-05T06:39:01.994Z,81.51
2018-09-05T06:41:30.346Z,81.46
2018-09-05T06:43:58.692Z,81.54
2018-09-05T06:46:27.022Z,81.64
2018-09-05T06:48:55.358Z,80.87
2018-09-05T06:51:23.739Z,81.84
2018-09-05T06:54:28.576Z,80.85
2018-09-05T06:56:56.900Z,80.27
2018-09-05T06:59:25.230Z,80.44
2018-09-05T07:01:53.545Z,80.19
2018-09-05T07:04:21.943Z,80.78
2018-09-05T07:06:50.310Z,79.80
2018-09-05T07:09:18.653Z,79.71
2018-09-05T07:11:47.025Z,78.74
2018-09-05T07:14:15.415Z,78.45
2018-09-05T07:16:43.736Z,78.34
2018-09-05T07:19:12.912Z,77.76
2018-09-05T07:21:41.292Z,77.44
2018-09-05T07:24:09.615Z,76.18
2018-09-05T07:26:38.430Z,76.76
2018-09-05T07:29:06.838Z,75.77
2018-09-05T07:31:35.196Z,75.59
2018-09-05T07:34:04.117Z,74.92
2018-09-05T07:36:32.465Z,73.82
2018-09-05T07:39:00.812Z,73.61
2018-09-05T07:41:29.191Z,71.06
2018-09-05T07:43:57.526Z,70.73
2018-09-05T07:46:25.847Z,70.74
2018-09-05T07:48:54.169Z,70.34
2018-09-05T07:51:22.520Z,71.53
2018-09-05T07:53:50.883Z,68.13
2018-09-05T07:56:19.246Z,68.00
2018-09-05T07:58:47.575Z,68.50
2018-09-05T08:01:15.977Z,67.86
2018-09-05T08:03:44.326Z,68.67
2018-09-05T08:06:12.673Z,67.12
2018-09-05T08:08:41.036Z,65.41
2018-09-05T08:11:09.390Z,65.70
2018-09-05T08:13:37.764Z,66.24
2018-09-05T08:16:06.628Z,66.51
2018-09-05T08:18:34.964Z,66.41
2018-09-05T08:21:03.358Z,65.73
2018-09-05T08:23:31.690Z,65.20
2018-09-05T08:26:00.055Z,64.60
2018-09-05T08:28:28.404Z,62.52
2018-09-05T08:30:56.762Z,62.73
2018-09-05T08:33:25.101Z,64.12
2018-09-05T08:35:53.783Z,61.84
2018-09-05T08:38:21.998Z,63.00
2018-09-05T08:40:51.147Z,61.37
2018-09-05T08:43:19.527Z,62.27
2018-09-05T08:45:48.081Z,59.53
2018-09-05T08:48:16.341Z,60.74
2018-09-05T08:50:44.624Z,55.66
2018-09-05T08:53:13.205Z,57.12
2018-09-05T08:55:41.509Z,54.87
2018-09-05T08:58:09.872Z,52.90
2018-09-05T09:00:38.275Z,52.40
2018-09-05T09:03:06.678Z,54.14
2018-09-05T09:05:35.001Z,51.62
2018-09-05T09:08:03.332Z,53.70
2018-09-05T09:10:31.671Z,50.15
2018-09-05T09:13:00.015Z,49.42
2018-09-05T09:15:28.349Z,51.43
2018-09-05T09:17:56.679Z,49.20
2018-09-05T09:20:25.011Z,50.69
2018-09-05T09:22:53.340Z,49.54
2018-09-05T09:25:21.683Z,47.74
2018-09-05T09:27:50.010Z,48.29
2018-09-05T09:30:18.335Z,48.93
2018-09-05T09:32:46.674Z,47.43
2018-09-05T09:35:15.040Z,46.10
2018-09-05T09:37:43.337Z,43.39
2018-09-05T09:40:11.699Z,47.92
2018-09-05T09:42:40.299Z,45.35
2018-09-05T09:45:08.638Z,44.49
2018-09-05T09:47:36.985Z,42.19
2018-09-05T09:50:05.366Z,41.80
2018-09-05T09:52:37.924Z,37.45
2018-09-05T09:55:07.667Z,38.16
2018-09-05T09:57:36.408Z,38.23
2018-09-05T10:00:04.955Z,37.44
2018-09-05T10:02:38.535Z,40.00
2018-09-05T10:05:12.224Z,38.17
2018-09-05T10:07:45.799Z,35.79
2018-09-05T10:10:19.751Z,35.89
2018-09-05T10:12:51.732Z,36.85
2018-09-05T10:15:25.449Z,37.68
2018-09-05T10:17:59.151Z,36.58
2018-09-05T10:20:27.516Z,41.26
2018-09-05T10:22:55.866Z,40.83
2018-09-05T10:25:24.203Z,41.88
2018-09-05T10:27:52.540Z,43.54
2018-09-05T10:30:20.891Z,42.43
2018-09-05T10:32:49.238Z,43.14
2018-09-05T10:35:17.555Z,42.13
2018-09-05T10:37:45.914Z,43.63
2018-09-05T10:40:14.274Z,43.25
2018-09-05T10:42:42.589Z,45.08
2018-09-05T10:45:10.933Z,44.02
2018-09-05T10:47:39.278Z,45.44
2018-09-05T10:50:07.625Z,46.28
2018-09-05T10:52:35.971Z,47.16
2018-09-05T10:55:04.329Z,47.28
2018-09-05T10:57:32.661Z,47.76
2018-09-05T11:00:01.029Z,47.75
2018-09-05T11:02:29.379Z,47.48
2018-09-05T11:04:57.725Z,49.59
2018-09-05T11:07:26.074Z,48.92
2018-09-05T11:09:54.418Z,48.29
2018-09-05T11:12:22.763Z,50.45
2018-09-05T11:14:51.108Z,50.65
2018-09-05T11:17:19.449Z,50.56
2018-09-05T11:19:47.767Z,50.57
2018-09-05T11:22:16.105Z,49.77
2018-09-05T11:24:44.475Z,50.79
2018-09-05T11:27:12.836Z,49.99
2018-09-05T11:29:41.197Z,51.46
2018-09-05T11:32:09.557Z,51.45
2018-09-05T11:34:37.941Z,50.19
2018-09-05T11:37:06.420Z,51.58
2018-09-05T11:39:34.722Z,50.00
2018-09-05T11:42:03.072Z,51.18
2018-09-05T11:44:31.518Z,50.88
2018-09-05T11:46:59.876Z,50.08
2018-09-05T11:49:28.228Z,51.57
2018-09-05T11:51:56.552Z,51.50
2018-09-05T11:54:24.894Z,50.97
2018-09-05T11:56:53.212Z,51.79
2018-09-05T11:59:21.567Z,51.09
2018-09-05T12:01:49.900Z,51.24
2018-09-05T12:04:18.312Z,50.96
2018-09-05T12:06:46.656Z,50.65
2018-09-05T12:09:15.477Z,51.83
2018-09-05T12:11:43.863Z,49.95
2018-09-05T12:14:12.173Z,50.49
2018-09-05T12:16:40.538Z,50.56
2018-09-05T12:19:08.861Z,50.32
2018-09-05T12:23:01.689Z,49.96
2018-09-05T12:25:30.047Z,51.00
2018-09-05T12:27:58.376Z,49.97
2018-09-05T12:30:26.824Z,50.31
2018-09-05T12:32:55.168Z,50.27
2018-09-05T12:35:23.519Z,50.45
2018-09-05T12:37:51.854Z,50.86
2018-09-05T12:40:20.170Z,49.83
2018-09-05T12:42:48.760Z,49.30
2018-09-05T12:45:17.128Z,50.30
2018-09-05T12:47:45.509Z,49.92
2018-09-05T12:50:14.540Z,49.08
2018-09-05T12:52:42.910Z,50.38
2018-09-05T12:55:11.264Z,49.66
2018-09-05T12:57:39.592Z,48.57
2018-09-05T13:00:07.984Z,49.36
2018-09-05T13:02:36.306Z,49.90
2018-09-05T13:05:04.761Z,49.13
2018-09-05T13:07:33.072Z,49.40
2018-09-05T13:10:01.432Z,48.32
2018-09-05T13:12:29.783Z,48.29
2018-09-05T13:14:58.132Z,48.39
2018-09-05T13:17:26.526Z,47.71
2018-09-05T13:19:54.952Z,47.61
2018-09-05T13:22:23.502Z,48.58
2018-09-05T13:24:51.869Z,48.50
2018-09-05T13:27:20.195Z,48.83
2018-09-05T13:29:48.771Z,47.97
2018-09-05T13:32:17.094Z,49.28
2018-09-05T13:34:45.428Z,48.51
2018-09-05T13:37:13.777Z,47.86
2018-09-05T13:39:42.101Z,48.63
2018-09-05T13:42:10.433Z,48.60
2018-09-05T13:44:38.784Z,48.78
2018-09-05T13:47:07.124Z,48.00
2018-09-05T13:49:35.456Z,49.94
2018-09-05T13:52:06.032Z,49.20
2018-09-05T13:54:36.173Z,49.77
2018-09-05T13:57:05.323Z,49.13
2018-09-05T13:59:34.922Z,49.50
2018-09-05T14:02:03.467Z,50.03
2018-09-05T14:04:31.925Z,49.38
2018-09-05T14:07:01.164Z,49.81
2018-09-05T14:09:30.361Z,49.20
2018-09-05T14:11:58.960Z,49.25
2018-09-05T14:14:27.284Z,49.15
2018-09-05T14:16:55.618Z,49.20
2018-09-05T14:19:24.133Z,49.16
2018-09-05T14:21:52.464Z,49.42
2018-09-05T14:24:20.824Z,49.56
2018-09-05T14:26:49.179Z,48.42
2018-09-05T14:29:17.515Z,47.25
2018-09-05T14:31:45.835Z,48.61
2018-09-05T14:34:14.164Z,47.96
2018-09-05T14:36:42.560Z,48.36
2018-09-05T14:39:12.908Z,48.20
2018-09-05T14:41:41.400Z,47.13
2018-09-05T14:44:09.963Z,47.78
2018-09-05T14:46:38.297Z,47.33
2018-09-05T14:49:06.842Z,47.67
2018-09-05T14:51:35.865Z,48.27
2018-09-05T14:54:04.270Z,47.98
2018-09-05T14:56:32.566Z,47.32
2018-09-05T14:59:00.883Z,47.98
2018-09-05T15:01:29.229Z,47.51
2018-09-05T15:03:57.596Z,47.97
2018-09-05T15:06:25.962Z,47.37
2018-09-05T15:08:54.282Z,47.90
2018-09-05T15:11:22.616Z,47.66
2018-09-05T15:13:50.941Z,47.36
2018-09-05T15:16:19.297Z,48.14
2018-09-05T15:18:47.601Z,47.76
2018-09-05T15:21:15.916Z,47.25
2018-09-05T15:23:44.249Z,48.03
2018-09-05T15:26:12.611Z,47.58
2018-09-05T15:28:41.100Z,47.16
2018-09-05T15:31:09.433Z,48.58
2018-09-05T15:33:38.011Z,48.19
2018-09-05T15:36:06.368Z,47.92
2018-09-05T15:38:34.728Z,47.24
2018-09-05T15:41:03.083Z,46.54
2018-09-05T15:43:31.407Z,47.05
2018-09-05T15:45:59.751Z,46.92
2018-09-05T15:48:28.102Z,46.76
2018-09-05T15:50:56.461Z,47.63
2018-09-05T15:53:24.772Z,47.13
2018-09-05T15:55:53.083Z,47.80
2018-09-05T15:58:21.412Z,47.14
2018-09-05T16:00:49.735Z,47.18
2018-09-05T16:03:18.069Z,46.88
2018-09-05T16:05:46.386Z,47.06
2018-09-05T16:08:14.723Z,48.04
2018-09-05T16:10:43.106Z,46.98
2018-09-05T16:13:11.442Z,47.58
2018-09-05T16:15:39.888Z,47.79
2018-09-05T16:18:08.125Z,47.55
2018-09-05T16:20:36.475Z,47.53
2018-09-05T16:23:04.794Z,47.83
2018-09-05T16:25:33.131Z,47.51
2018-09-05T16:28:01.467Z,48.15
2018-09-05T16:30:29.788Z,48.25
2018-09-05T16:32:58.123Z,48.44
2018-09-05T16:35:26.558Z,48.87
2018-09-05T16:37:54.904Z,48.28
2018-09-05T16:40:23.652Z,49.17
2018-09-05T16:42:51.988Z,49.30
2018-09-05T16:45:20.312Z,49.26
2018-09-05T16:47:48.632Z,48.71
2018-09-05T16:50:16.982Z,48.30
2018-09-05T16:52:45.304Z,48.34
2018-09-05T16:55:13.639Z,48.11
2018-09-05T16:57:42.060Z,48.11
2018-09-05T17:00:10.396Z,48.93
2018-09-05T17:02:38.712Z,48.86
2018-09-05T17:05:07.164Z,48.40
2018-09-05T17:07:35.542Z,47.78
2018-09-05T17:10:05.775Z,48.11
2018-09-05T17:12:35.519Z,48.48
2018-09-05T17:15:03.961Z,48.60
2018-09-05T17:17:32.292Z,49.65
2018-09-05T17:20:00.603Z,49.06
2018-09-05T17:22:29.020Z,50.04
2018-09-05T17:24:57.279Z,49.46
2018-09-05T17:27:25.606Z,50.33
2018-09-05T17:29:53.952Z,49.99
2018-09-05T17:32:22.320Z,49.88
2018-09-05T17:34:50.675Z,50.17
2018-09-05T17:37:19.226Z,50.17
2018-09-05T17:39:47.540Z,50.25
2018-09-05T17:42:15.859Z,49.09
2018-09-05T17:44:44.191Z,50.71
2018-09-05T17:47:12.503Z,50.23
2018-09-05T17:49:40.882Z,50.61
2018-09-05T17:52:10.474Z,51.68
2018-09-05T17:54:38.840Z,50.38
2018-09-05T17:57:07.181Z,51.89
2018-09-05T17:59:35.560Z,50.09
2018-09-05T18:02:03.907Z,50.58
2018-09-05T18:04:32.272Z,51.53
2018-09-05T18:07:00.632Z,50.55
2018-09-05T18:09:28.967Z,50.06
2018-09-05T18:11:57.289Z,51.21
2018-09-05T18:14:25.690Z,50.53
2018-09-05T18:16:54.044Z,51.56
2018-09-05T18:19:22.359Z,51.38
2018-09-05T18:21:50.698Z,51.45
2018-09-05T18:24:19.029Z,51.92
2018-09-05T18:26:47.364Z,50.87
2018-09-05T18:29:15.687Z,51.02
2018-09-05T18:31:44.048Z,52.11
2018-09-05T18:34:12.432Z,52.26
2018-09-05T18:36:40.774Z,52.22
2018-09-05T18:39:09.490Z,52.75
2018-09-05T18:41:38.071Z,53.47
2018-09-05T18:44:06.421Z,54.39
2018-09-05T18:46:34.792Z,53.56
2018-09-05T18:49:03.191Z,53.55
2018-09-05T18:51:31.671Z,53.02
2018-09-05T18:53:59.996Z,52.72
2018-09-05T18:56:28.340Z,52.28
2018-09-05T18:58:56.694Z,52.72
2018-09-05T19:01:25.030Z,53.39
2018-09-05T19:03:53.485Z,52.64
2018-09-05T19:06:21.815Z,52.73
2018-09-05T19:08:50.138Z,54.26
2018-09-05T19:11:18.442Z,53.56
2018-09-05T19:13:46.777Z,54.11
2018-09-05T19:16:15.111Z,54.11
2018-09-05T19:18:43.476Z,54.19
2018-09-05T19:21:11.819Z,54.68
2018-09-05T19:23:40.213Z,55.08
2018-09-05T19:26:08.553Z,56.08
2018-09-05T19:28:36.904Z,56.52
2018-09-05T19:31:05.288Z,56.83
2018-09-05T19:33:33.628Z,56.70
2018-09-05T19:36:01.939Z,56.91
2018-09-05T19:38:30.313Z,57.08
2018-09-05T19:40:58.627Z,58.91
2018-09-05T19:43:26.960Z,58.28
2018-09-05T19:45:55.309Z,58.38
2018-09-05T19:48:23.636Z,58.93
2018-09-05T19:50:51.981Z,58.89
2018-09-05T19:53:20.317Z,59.10
2018-09-05T19:55:48.655Z,60.11
2018-09-05T19:58:16.984Z,59.40
2018-09-05T20:00:45.338Z,59.81
2018-09-05T20:03:13.732Z,60.63
2018-09-05T20:05:42.096Z,60.72
2018-09-05T20:08:10.424Z,60.51
2018-09-05T20:10:38.766Z,61.46
2018-09-05T20:13:07.716Z,61.36
2018-09-05T20:15:36.082Z,62.05
2018-09-05T20:18:04.425Z,61.58
2018-09-05T20:20:33.056Z,60.58
2018-09-05T20:23:01.406Z,61.57
2018-09-05T20:25:29.888Z,61.79
2018-09-05T20:27:58.209Z,62.12
2018-09-05T20:30:26.552Z,61.78
2018-09-05T20:32:54.944Z,62.46
2018-09-05T20:35:23.237Z,63.12
2018-09-05T20:37:51.588Z,62.93
2018-09-05T20:40:22.545Z,63.67
2018-09-05T20:42:50.904Z,62.99
2018-09-05T20:45:19.248Z,63.22
2018-09-05T20:47:47.586Z,63.53
2018-09-05T20:50:15.933Z,62.73
2018-09-05T20:52:44.269Z,64.85
2018-09-05T20:55:12.588Z,64.09
2018-09-05T20:57:41.365Z,63.94
2018-09-05T21:00:09.701Z,64.25
2018-09-05T21:02:38.032Z,63.80
2018-09-05T21:05:06.403Z,64.69
2018-09-05T21:07:34.768Z,63.70
2018-09-05T21:10:03.112Z,66.18
2018-09-05T21:12:31.526Z,64.83
2018-09-05T21:14:59.859Z,64.73
2018-09-05T21:17:28.177Z,64.34
2018-09-05T21:19:56.598Z,65.46
2018-09-05T21:22:24.934Z,65.84
2018-09-05T21:24:53.273Z,65.80
2018-09-05T21:27:21.863Z,65.75
2018-09-05T21:29:50.144Z,65.78
2018-09-05T21:32:18.473Z,65.93
2018-09-05T21:34:47.418Z,65.57
2018-09-05T21:37:15.756Z,66.00
2018-09-05T21:39:44.074Z,66.28
2018-09-05T21:42:12.423Z,66.65
2018-09-05T21:44:40.758Z,67.54
2018-09-05T21:47:09.098Z,66.12
2018-09-05T21:49:37.418Z,67.48
2018-09-05T21:52:05.850Z,66.73
2018-09-05T21:54:34.604Z,67.39
2018-09-05T21:57:02.932Z,66.60
2018-09-05T21:59:31.303Z,66.85
2018-09-05T22:01:59.615Z,66.83
2018-09-05T22:04:28.091Z,68.11
2018-09-05T22:06:56.484Z,67.69
2018-09-05T22:09:24.794Z,68.78
2018-09-05T22:11:53.139Z,67.50
2018-09-05T22:14:21.458Z,67.67
2018-09-05T22:16:49.793Z,68.09
2018-09-05T22:19:18.140Z,67.24
2018-09-05T22:21:46.482Z,68.25
2018-09-05T22:24:14.849Z,68.75
2018-09-05T22:26:43.179Z,68.26
2018-09-05T22:29:11.498Z,68.06
2018-09-05T22:31:39.836Z,69.85
2018-09-05T22:34:08.241Z,70.31
2018-09-05T22:36:36.575Z,69.40
2018-09-05T22:39:06.903Z,69.79
2018-09-05T22:41:35.306Z,68.83
2018-09-05T22:44:14.936Z,69.15
2018-09-05T22:46:54.683Z,68.83
2018-09-05T22:52:13.984Z,69.63
2018-09-05T22:57:08.054Z,70.60
2018-09-05T23:00:45.412Z,69.29
2018-09-05T23:03:27.693Z,69.04
2018-09-05T23:06:07.428Z,71.18
2018-09-05T23:08:39.234Z,70.46
2018-09-05T23:11:19.300Z,69.28
2018-09-05T23:14:00.141Z,70.12
2018-09-05T23:16:40.555Z,70.45
2018-09-05T23:19:48.174Z,70.18
2018-09-05T23:22:16.652Z,70.21
2018-09-05T23:24:45.175Z,70.66
2018-09-05T23:27:14.204Z,70.42
2018-09-05T23:29:42.958Z,69.51
2018-09-05T23:32:11.349Z,69.96
2018-09-05T23:34:39.714Z,71.55
2018-09-05T23:37:08.052Z,70.94
2018-09-05T23:39:36.404Z,71.00
2018-09-05T23:42:04.838Z,71.43
2018-09-05T23:44:33.165Z,70.88
2018-09-05T23:47:01.676Z,72.60
2018-09-05T23:49:29.999Z,72.00
2018-09-05T23:51:58.324Z,71.75
2018-09-05T23:54:26.732Z,72.25
2018-09-05T23:56:55.088Z,73.13
2018-09-05T23:59:23.417Z,72.21
